sensor_id;sensor_type;location;lat;lon;timestamp;pressure;altitude;pressure_sealevel;temperature;humidity
23321;BME280;33376;51.306;4.752;2023-03-01T00:00:10;103286.13;;;-0.18;nan
23321;BME280;33376;51.306;4.752;2023-03-01T00:02:35;103289.28;;;-0.28;nan
23321;BME280;33376;51.306;4.752;2023-03-01T00:05:01;103291.78;;;-0.32;nan
23321;BME280;33376;51.306;4.752;2023-03-01T00:07:26;103295.38;;;-0.27;nan
23321;BME280;33376;51.306;4.752;2023-03-01T00:09:51;103299.84;;;-0.23;nan
23321;BME280;33376;51.306;4.752;2023-03-01T00:12:17;103301.56;;;-0.24;nan
23321;BME280;33376;51.306;4.752;2023-03-01T00:14:42;103304.75;;;-0.34;nan
23321;BME280;33376;51.306;4.752;2023-03-01T00:17:07;103308.97;;;-0.39;nan
23321;BME280;33376;51.306;4.752;2023-03-01T00:19:32;103332.31;;;-0.42;nan
23321;BME280;33376;51.306;4.752;2023-03-01T00:21:58;103333.16;;;-0.43;nan
23321;BME280;33376;51.306;4.752;2023-03-01T00:24:23;103341.03;;;-0.40;nan
23321;BME280;33376;51.306;4.752;2023-03-01T00:26:48;103352.28;;;-0.42;nan
23321;BME280;33376;51.306;4.752;2023-03-01T00:29:14;103354.25;;;-0.35;nan
23321;BME280;33376;51.306;4.752;2023-03-01T00:31:40;103349.25;;;-0.28;nan
23321;BME280;33376;51.306;4.752;2023-03-01T00:34:05;103352.44;;;-0.36;nan
23321;BME280;33376;51.306;4.752;2023-03-01T00:36:32;103348.22;;;-0.33;nan
23321;BME280;33376;51.306;4.752;2023-03-01T00:38:57;103358.56;;;-0.36;nan
23321;BME280;33376;51.306;4.752;2023-03-01T00:41:22;103355.91;;;-0.37;nan
23321;BME280;33376;51.306;4.752;2023-03-01T00:43:48;103356.50;;;-0.46;nan
23321;BME280;33376;51.306;4.752;2023-03-01T00:46:15;103354.03;;;-0.41;nan
23321;BME280;33376;51.306;4.752;2023-03-01T00:48:41;103356.72;;;-0.38;nan
23321;BME280;33376;51.306;4.752;2023-03-01T00:53:35;103349.66;;;-0.42;nan
23321;BME280;33376;51.306;4.752;2023-03-01T00:56:00;103354.75;;;-0.47;nan
23321;BME280;33376;51.306;4.752;2023-03-01T00:58:26;103355.34;;;-0.55;nan
23321;BME280;33376;51.306;4.752;2023-03-01T01:00:51;103351.84;;;-0.56;nan
23321;BME280;33376;51.306;4.752;2023-03-01T01:03:17;103356.16;;;-0.58;nan
23321;BME280;33376;51.306;4.752;2023-03-01T01:05:42;103349.00;;;-0.63;nan
23321;BME280;33376;51.306;4.752;2023-03-01T01:08:08;103359.53;;;-0.60;nan
23321;BME280;33376;51.306;4.752;2023-03-01T01:10:36;103358.59;;;-0.62;nan
23321;BME280;33376;51.306;4.752;2023-03-01T01:13:01;103352.81;;;-0.52;nan
23321;BME280;33376;51.306;4.752;2023-03-01T01:15:26;103357.00;;;-0.57;nan
23321;BME280;33376;51.306;4.752;2023-03-01T01:17:52;103350.09;;;-0.57;nan
23321;BME280;33376;51.306;4.752;2023-03-01T01:20:17;103343.25;;;-0.53;nan
23321;BME280;33376;51.306;4.752;2023-03-01T01:22:43;103344.84;;;-0.58;nan
23321;BME280;33376;51.306;4.752;2023-03-01T01:25:08;103348.91;;;-0.66;nan
23321;BME280;33376;51.306;4.752;2023-03-01T01:27:33;103344.25;;;-0.76;nan
23321;BME280;33376;51.306;4.752;2023-03-01T01:29:58;103344.50;;;-0.69;nan
23321;BME280;33376;51.306;4.752;2023-03-01T01:32:24;103331.66;;;-0.63;nan
23321;BME280;33376;51.306;4.752;2023-03-01T01:34:49;103330.78;;;-0.63;nan
23321;BME280;33376;51.306;4.752;2023-03-01T01:37:14;103334.81;;;-0.73;nan
23321;BME280;33376;51.306;4.752;2023-03-01T01:39:39;103332.03;;;-0.79;nan
23321;BME280;33376;51.306;4.752;2023-03-01T01:42:05;103327.75;;;-0.77;nan
23321;BME280;33376;51.306;4.752;2023-03-01T01:44:30;103335.28;;;-0.86;nan
23321;BME280;33376;51.306;4.752;2023-03-01T01:47:00;103335.22;;;-0.87;nan
23321;BME280;33376;51.306;4.752;2023-03-01T01:52:00;103353.69;;;-1.06;nan
23321;BME280;33376;51.306;4.752;2023-03-01T01:54:28;103353.03;;;-1.01;nan
23321;BME280;33376;51.306;4.752;2023-03-01T01:56:55;103355.53;;;-1.04;nan
23321;BME280;33376;51.306;4.752;2023-03-01T01:59:21;103354.50;;;-1.09;nan
23321;BME280;33376;51.306;4.752;2023-03-01T02:01:49;103359.38;;;-1.18;nan
23321;BME280;33376;51.306;4.752;2023-03-01T02:04:14;103356.47;;;-1.27;nan
23321;BME280;33376;51.306;4.752;2023-03-01T02:06:41;103369.09;;;-1.39;nan
23321;BME280;33376;51.306;4.752;2023-03-01T02:09:13;103368.00;;;-1.45;nan
23321;BME280;33376;51.306;4.752;2023-03-01T02:11:39;103380.69;;;-1.53;nan
23321;BME280;33376;51.306;4.752;2023-03-01T02:14:05;103378.03;;;-1.31;nan
23321;BME280;33376;51.306;4.752;2023-03-01T02:16:30;103387.50;;;-1.33;nan
23321;BME280;33376;51.306;4.752;2023-03-01T02:18:56;103376.25;;;-1.32;nan
23321;BME280;33376;51.306;4.752;2023-03-01T02:23:53;103362.63;;;-1.25;nan
23321;BME280;33376;51.306;4.752;2023-03-01T02:26:22;103372.25;;;-1.22;nan
23321;BME280;33376;51.306;4.752;2023-03-01T02:28:49;103374.75;;;-1.25;nan
23321;BME280;33376;51.306;4.752;2023-03-01T02:31:16;103370.00;;;-1.37;nan
23321;BME280;33376;51.306;4.752;2023-03-01T02:34:00;103378.69;;;-1.36;nan
23321;BME280;33376;51.306;4.752;2023-03-01T02:36:30;103366.53;;;-1.37;nan
23321;BME280;33376;51.306;4.752;2023-03-01T02:38:57;103354.72;;;-1.28;nan
23321;BME280;33376;51.306;4.752;2023-03-01T02:41:23;103353.63;;;-1.34;nan
23321;BME280;33376;51.306;4.752;2023-03-01T02:43:50;103372.69;;;-1.59;nan
23321;BME280;33376;51.306;4.752;2023-03-01T02:46:17;103384.66;;;-1.40;nan
23321;BME280;33376;51.306;4.752;2023-03-01T02:48:44;103377.00;;;-1.60;nan
23321;BME280;33376;51.306;4.752;2023-03-01T02:53:39;103398.22;;;-1.49;nan
23321;BME280;33376;51.306;4.752;2023-03-01T02:56:06;103396.22;;;-1.56;nan
23321;BME280;33376;51.306;4.752;2023-03-01T02:58:37;103398.41;;;-1.43;nan
23321;BME280;33376;51.306;4.752;2023-03-01T03:01:05;103398.72;;;-1.34;nan
23321;BME280;33376;51.306;4.752;2023-03-01T03:03:30;103385.00;;;-1.30;nan
23321;BME280;33376;51.306;4.752;2023-03-01T03:05:55;103387.72;;;-1.27;nan
23321;BME280;33376;51.306;4.752;2023-03-01T03:08:21;103384.69;;;-1.39;nan
23321;BME280;33376;51.306;4.752;2023-03-01T03:10:48;103396.66;;;-1.44;nan
23321;BME280;33376;51.306;4.752;2023-03-01T03:13:14;103394.88;;;-1.45;nan
23321;BME280;33376;51.306;4.752;2023-03-01T03:15:40;103395.22;;;-1.36;nan
23321;BME280;33376;51.306;4.752;2023-03-01T03:18:07;103399.06;;;-1.50;nan
23321;BME280;33376;51.306;4.752;2023-03-01T03:20:32;103399.38;;;-1.41;nan
23321;BME280;33376;51.306;4.752;2023-03-01T03:22:58;103403.72;;;-1.40;nan
23321;BME280;33376;51.306;4.752;2023-03-01T03:25:23;103405.38;;;-1.42;nan
23321;BME280;33376;51.306;4.752;2023-03-01T03:27:50;103398.31;;;-1.46;nan
23321;BME280;33376;51.306;4.752;2023-03-01T03:30:21;103398.53;;;-1.40;nan
23321;BME280;33376;51.306;4.752;2023-03-01T03:32:47;103392.25;;;-1.45;nan
23321;BME280;33376;51.306;4.752;2023-03-01T03:35:22;103400.25;;;-1.40;nan
23321;BME280;33376;51.306;4.752;2023-03-01T03:37:49;103395.91;;;-1.40;nan
23321;BME280;33376;51.306;4.752;2023-03-01T03:40:28;103398.38;;;-1.44;nan
23321;BME280;33376;51.306;4.752;2023-03-01T03:42:54;103394.50;;;-1.30;nan
23321;BME280;33376;51.306;4.752;2023-03-01T03:45:19;103389.91;;;-1.39;nan
23321;BME280;33376;51.306;4.752;2023-03-01T03:47:45;103390.75;;;-1.38;nan
23321;BME280;33376;51.306;4.752;2023-03-01T03:50:11;103392.44;;;-1.40;nan
23321;BME280;33376;51.306;4.752;2023-03-01T03:52:36;103394.16;;;-1.41;nan
23321;BME280;33376;51.306;4.752;2023-03-01T03:55:02;103391.34;;;-1.47;nan
23321;BME280;33376;51.306;4.752;2023-03-01T03:57:27;103393.09;;;-1.46;nan
23321;BME280;33376;51.306;4.752;2023-03-01T03:59:52;103392.31;;;-1.43;nan
23321;BME280;33376;51.306;4.752;2023-03-01T04:02:18;103397.56;;;-1.42;nan
23321;BME280;33376;51.306;4.752;2023-03-01T04:04:47;103402.03;;;-1.39;nan
23321;BME280;33376;51.306;4.752;2023-03-01T04:07:14;103394.16;;;-1.41;nan
23321;BME280;33376;51.306;4.752;2023-03-01T04:09:40;103395.97;;;-1.38;nan
23321;BME280;33376;51.306;4.752;2023-03-01T04:12:07;103389.91;;;-1.39;nan
23321;BME280;33376;51.306;4.752;2023-03-01T04:14:33;103390.59;;;-1.43;nan
23321;BME280;33376;51.306;4.752;2023-03-01T04:16:58;103394.75;;;-1.48;nan
23321;BME280;33376;51.306;4.752;2023-03-01T04:19:23;103393.00;;;-1.49;nan
23321;BME280;33376;51.306;4.752;2023-03-01T04:21:48;103393.59;;;-1.56;nan
23321;BME280;33376;51.306;4.752;2023-03-01T04:24:14;103406.50;;;-1.59;nan
23321;BME280;33376;51.306;4.752;2023-03-01T04:26:39;103401.38;;;-1.58;nan
23321;BME280;33376;51.306;4.752;2023-03-01T04:29:04;103410.16;;;-1.54;nan
23321;BME280;33376;51.306;4.752;2023-03-01T04:31:29;103409.47;;;-1.50;nan
23321;BME280;33376;51.306;4.752;2023-03-01T04:33:55;103410.81;;;-1.60;nan
23321;BME280;33376;51.306;4.752;2023-03-01T04:36:21;103415.81;;;-1.66;nan
23321;BME280;33376;51.306;4.752;2023-03-01T04:38:49;103414.16;;;-1.64;nan
23321;BME280;33376;51.306;4.752;2023-03-01T04:41:15;103414.09;;;-1.65;nan
23321;BME280;33376;51.306;4.752;2023-03-01T04:43:41;103418.56;;;-1.61;nan
23321;BME280;33376;51.306;4.752;2023-03-01T04:46:11;103416.69;;;-1.65;nan
23321;BME280;33376;51.306;4.752;2023-03-01T04:48:40;103403.28;;;-1.77;nan
23321;BME280;33376;51.306;4.752;2023-03-01T04:51:07;103417.97;;;-1.78;nan
23321;BME280;33376;51.306;4.752;2023-03-01T04:53:34;103410.94;;;-1.80;nan
23321;BME280;33376;51.306;4.752;2023-03-01T04:56:02;103403.44;;;-1.73;nan
23321;BME280;33376;51.306;4.752;2023-03-01T04:58:28;103409.56;;;-1.71;nan
23321;BME280;33376;51.306;4.752;2023-03-01T05:00:53;103401.69;;;-1.72;nan
23321;BME280;33376;51.306;4.752;2023-03-01T05:03:19;103393.09;;;-1.71;nan
23321;BME280;33376;51.306;4.752;2023-03-01T05:05:45;103392.13;;;-1.73;nan
23321;BME280;33376;51.306;4.752;2023-03-01T05:08:12;103386.88;;;-1.75;nan
23321;BME280;33376;51.306;4.752;2023-03-01T05:10:48;103383.59;;;-1.69;nan
23321;BME280;33376;51.306;4.752;2023-03-01T05:13:14;103376.59;;;-1.72;nan
23321;BME280;33376;51.306;4.752;2023-03-01T05:15:45;103372.81;;;-1.80;nan
23321;BME280;33376;51.306;4.752;2023-03-01T05:18:14;103370.59;;;-1.93;nan
23321;BME280;33376;51.306;4.752;2023-03-01T05:20:39;103371.72;;;-1.86;nan
23321;BME280;33376;51.306;4.752;2023-03-01T05:23:04;103372.44;;;-1.90;nan
23321;BME280;33376;51.306;4.752;2023-03-01T05:25:30;103375.81;;;-1.93;nan
23321;BME280;33376;51.306;4.752;2023-03-01T05:27:58;103375.75;;;-1.94;nan
23321;BME280;33376;51.306;4.752;2023-03-01T05:30:23;103373.94;;;-1.97;nan
23321;BME280;33376;51.306;4.752;2023-03-01T05:32:49;103381.13;;;-1.90;nan
23321;BME280;33376;51.306;4.752;2023-03-01T05:35:16;103374.16;;;-1.91;nan
23321;BME280;33376;51.306;4.752;2023-03-01T05:37:42;103375.00;;;-1.92;nan
23321;BME280;33376;51.306;4.752;2023-03-01T05:40:09;103381.78;;;-1.95;nan
23321;BME280;33376;51.306;4.752;2023-03-01T05:42:40;103373.25;;;-1.91;nan
23321;BME280;33376;51.306;4.752;2023-03-01T05:45:06;103374.00;;;-1.95;nan
23321;BME280;33376;51.306;4.752;2023-03-01T05:47:34;103368.84;;;-1.94;nan
23321;BME280;33376;51.306;4.752;2023-03-01T05:50:00;103363.66;;;-1.94;nan
23321;BME280;33376;51.306;4.752;2023-03-01T05:52:25;103361.22;;;-1.89;nan
23321;BME280;33376;51.306;4.752;2023-03-01T05:54:50;103354.31;;;-1.89;nan
23321;BME280;33376;51.306;4.752;2023-03-01T05:57:16;103359.50;;;-1.89;nan
23321;BME280;33376;51.306;4.752;2023-03-01T05:59:41;103350.44;;;-2.00;nan
23321;BME280;33376;51.306;4.752;2023-03-01T06:02:06;103353.25;;;-1.94;nan
23321;BME280;33376;51.306;4.752;2023-03-01T06:04:32;103363.69;;;-1.92;nan
23321;BME280;33376;51.306;4.752;2023-03-01T06:06:57;103357.19;;;-2.05;nan
23321;BME280;33376;51.306;4.752;2023-03-01T06:09:22;103357.44;;;-1.97;nan
23321;BME280;33376;51.306;4.752;2023-03-01T06:11:47;103359.72;;;-2.06;nan
23321;BME280;33376;51.306;4.752;2023-03-01T06:14:13;103353.31;;;-2.16;nan
23321;BME280;33376;51.306;4.752;2023-03-01T06:16:39;103367.09;;;-2.17;nan
23321;BME280;33376;51.306;4.752;2023-03-01T06:19:04;103367.94;;;-2.18;nan
23321;BME280;33376;51.306;4.752;2023-03-01T06:21:30;103365.28;;;-2.19;nan
23321;BME280;33376;51.306;4.752;2023-03-01T06:23:55;103372.41;;;-2.14;nan
23321;BME280;33376;51.306;4.752;2023-03-01T06:26:20;103375.00;;;-2.14;nan
23321;BME280;33376;51.306;4.752;2023-03-01T06:28:46;103372.66;;;-2.08;nan
23321;BME280;33376;51.306;4.752;2023-03-01T06:31:11;103373.09;;;-1.96;nan
23321;BME280;33376;51.306;4.752;2023-03-01T06:33:36;103371.28;;;-1.98;nan
23321;BME280;33376;51.306;4.752;2023-03-01T06:36:02;103367.63;;;-2.03;nan
23321;BME280;33376;51.306;4.752;2023-03-01T06:38:27;103369.00;;;-1.89;nan
23321;BME280;33376;51.306;4.752;2023-03-01T06:40:52;103374.47;;;-1.82;nan
23321;BME280;33376;51.306;4.752;2023-03-01T06:43:22;103368.47;;;-1.81;nan
23321;BME280;33376;51.306;4.752;2023-03-01T06:45:48;103370.44;;;-1.74;nan
23321;BME280;33376;51.306;4.752;2023-03-01T06:48:13;103370.53;;;-1.71;nan
23321;BME280;33376;51.306;4.752;2023-03-01T06:50:38;103371.59;;;-1.66;nan
23321;BME280;33376;51.306;4.752;2023-03-01T06:53:04;103372.91;;;-1.53;nan
23321;BME280;33376;51.306;4.752;2023-03-01T06:55:29;103361.34;;;-1.37;nan
23321;BME280;33376;51.306;4.752;2023-03-01T06:57:55;103354.28;;;-1.40;nan
23321;BME280;33376;51.306;4.752;2023-03-01T07:00:21;103357.38;;;-1.26;nan
23321;BME280;33376;51.306;4.752;2023-03-01T07:02:46;103367.63;;;-1.31;nan
23321;BME280;33376;51.306;4.752;2023-03-01T07:05:12;103355.47;;;-1.30;nan
23321;BME280;33376;51.306;4.752;2023-03-01T07:07:37;103353.94;;;-1.25;nan
23321;BME280;33376;51.306;4.752;2023-03-01T07:10:02;103348.56;;;-1.30;nan
23321;BME280;33376;51.306;4.752;2023-03-01T07:12:27;103352.97;;;-1.27;nan
23321;BME280;33376;51.306;4.752;2023-03-01T07:14:53;103348.66;;;-1.27;nan
23321;BME280;33376;51.306;4.752;2023-03-01T07:17:18;103356.09;;;-1.12;nan
23321;BME280;33376;51.306;4.752;2023-03-01T07:19:43;103356.81;;;-0.91;nan
23321;BME280;33376;51.306;4.752;2023-03-01T07:22:10;103345.31;;;-0.70;nan
23321;BME280;33376;51.306;4.752;2023-03-01T07:24:35;103330.00;;;-0.61;nan
23321;BME280;33376;51.306;4.752;2023-03-01T07:27:00;103327.66;;;-0.52;nan
23321;BME280;33376;51.306;4.752;2023-03-01T07:29:25;103319.50;;;-0.34;nan
23321;BME280;33376;51.306;4.752;2023-03-01T07:31:51;103313.25;;;-0.10;nan
23321;BME280;33376;51.306;4.752;2023-03-01T07:34:16;103295.22;;;0.29;nan
23321;BME280;33376;51.306;4.752;2023-03-01T07:36:41;103276.81;;;0.57;nan
23321;BME280;33376;51.306;4.752;2023-03-01T07:39:08;103259.88;;;0.76;nan
23321;BME280;33376;51.306;4.752;2023-03-01T07:41:33;103235.41;;;0.72;nan
23321;BME280;33376;51.306;4.752;2023-03-01T07:43:59;103222.38;;;1.11;nan
23321;BME280;33376;51.306;4.752;2023-03-01T07:46:24;103193.84;;;1.21;nan
23321;BME280;33376;51.306;4.752;2023-03-01T07:48:49;103172.31;;;1.33;nan
23321;BME280;33376;51.306;4.752;2023-03-01T07:51:14;103166.97;;;1.25;nan
23321;BME280;33376;51.306;4.752;2023-03-01T07:53:40;103159.50;;;1.43;nan
23321;BME280;33376;51.306;4.752;2023-03-01T07:56:12;103133.38;;;1.45;nan
23321;BME280;33376;51.306;4.752;2023-03-01T07:58:38;103123.72;;;1.90;nan
23321;BME280;33376;51.306;4.752;2023-03-01T08:01:05;103115.47;;;1.68;nan
23321;BME280;33376;51.306;4.752;2023-03-01T08:03:30;103114.88;;;1.82;nan
23321;BME280;33376;51.306;4.752;2023-03-01T08:05:56;103104.25;;;1.73;nan
23321;BME280;33376;51.306;4.752;2023-03-01T08:08:21;103102.75;;;1.87;nan
23321;BME280;33376;51.306;4.752;2023-03-01T08:10:46;103097.53;;;1.87;nan
23321;BME280;33376;51.306;4.752;2023-03-01T08:13:12;103078.59;;;2.02;nan
23321;BME280;33376;51.306;4.752;2023-03-01T08:15:37;103072.97;;;1.79;nan
23321;BME280;33376;51.306;4.752;2023-03-01T08:18:02;103080.63;;;1.67;nan
23321;BME280;33376;51.306;4.752;2023-03-01T08:20:27;103109.03;;;1.49;nan
23321;BME280;33376;51.306;4.752;2023-03-01T08:22:53;103109.00;;;1.47;nan
23321;BME280;33376;51.306;4.752;2023-03-01T08:25:18;103111.53;;;1.41;nan
23321;BME280;33376;51.306;4.752;2023-03-01T08:27:43;103119.56;;;1.52;nan
23321;BME280;33376;51.306;4.752;2023-03-01T08:30:08;103131.13;;;1.65;nan
23321;BME280;33376;51.306;4.752;2023-03-01T08:32:35;103127.44;;;1.53;nan
23321;BME280;33376;51.306;4.752;2023-03-01T08:35:01;103124.09;;;1.61;nan
23321;BME280;33376;51.306;4.752;2023-03-01T08:37:26;103123.03;;;1.51;nan
23321;BME280;33376;51.306;4.752;2023-03-01T08:39:51;103110.97;;;1.59;nan
23321;BME280;33376;51.306;4.752;2023-03-01T08:42:16;103107.78;;;1.75;nan
23321;BME280;33376;51.306;4.752;2023-03-01T08:44:42;103121.03;;;1.86;nan
23321;BME280;33376;51.306;4.752;2023-03-01T08:47:07;103102.97;;;1.99;nan
23321;BME280;33376;51.306;4.752;2023-03-01T08:49:32;103085.63;;;2.04;nan
23321;BME280;33376;51.306;4.752;2023-03-01T08:51:57;103104.97;;;2.14;nan
23321;BME280;33376;51.306;4.752;2023-03-01T08:54:23;103084.94;;;2.17;nan
23321;BME280;33376;51.306;4.752;2023-03-01T08:56:48;103067.66;;;2.28;nan
23321;BME280;33376;51.306;4.752;2023-03-01T08:59:14;103042.31;;;2.24;nan
23321;BME280;33376;51.306;4.752;2023-03-01T09:01:40;103047.56;;;2.27;nan
23321;BME280;33376;51.306;4.752;2023-03-01T09:04:08;103012.53;;;2.18;nan
23321;BME280;33376;51.306;4.752;2023-03-01T09:06:33;102999.63;;;2.30;nan
23321;BME280;33376;51.306;4.752;2023-03-01T09:08:59;102998.91;;;2.41;nan
23321;BME280;33376;51.306;4.752;2023-03-01T09:11:24;102999.78;;;2.40;nan
23321;BME280;33376;51.306;4.752;2023-03-01T09:13:50;102980.59;;;2.41;nan
23321;BME280;33376;51.306;4.752;2023-03-01T09:16:16;102959.78;;;2.52;nan
23321;BME280;33376;51.306;4.752;2023-03-01T09:18:42;102959.13;;;2.69;nan
23321;BME280;33376;51.306;4.752;2023-03-01T09:21:12;102939.84;;;2.63;nan
23321;BME280;33376;51.306;4.752;2023-03-01T09:23:40;102945.34;;;2.88;nan
23321;BME280;33376;51.306;4.752;2023-03-01T09:26:06;102937.63;;;3.03;nan
23321;BME280;33376;51.306;4.752;2023-03-01T09:28:32;102905.38;;;3.09;nan
23321;BME280;33376;51.306;4.752;2023-03-01T09:30:58;102895.66;;;2.96;nan
23321;BME280;33376;51.306;4.752;2023-03-01T09:33:24;102898.44;;;3.16;nan
23321;BME280;33376;51.306;4.752;2023-03-01T09:35:49;102881.03;;;3.24;nan
23321;BME280;33376;51.306;4.752;2023-03-01T09:38:14;102865.22;;;3.13;nan
23321;BME280;33376;51.306;4.752;2023-03-01T09:40:43;102853.91;;;3.19;nan
23321;BME280;33376;51.306;4.752;2023-03-01T09:43:31;102849.72;;;3.45;nan
23321;BME280;33376;51.306;4.752;2023-03-01T09:46:00;102813.00;;;3.45;nan
23321;BME280;33376;51.306;4.752;2023-03-01T09:48:28;102801.69;;;3.52;nan
23321;BME280;33376;51.306;4.752;2023-03-01T09:50:56;102791.22;;;3.61;nan
23321;BME280;33376;51.306;4.752;2023-03-01T09:53:23;102746.69;;;3.64;nan
23321;BME280;33376;51.306;4.752;2023-03-01T09:56:00;102741.47;;;3.71;nan
23321;BME280;33376;51.306;4.752;2023-03-01T09:58:47;102739.69;;;3.70;nan
23321;BME280;33376;51.306;4.752;2023-03-01T10:04:09;102732.78;;;3.89;nan
23321;BME280;33376;51.306;4.752;2023-03-01T10:06:36;102713.53;;;3.90;nan
23321;BME280;33376;51.306;4.752;2023-03-01T10:09:10;102713.53;;;3.87;nan
23321;BME280;33376;51.306;4.752;2023-03-01T10:11:38;102700.44;;;4.06;nan
23321;BME280;33376;51.306;4.752;2023-03-01T10:14:15;102688.19;;;4.02;nan
23321;BME280;33376;51.306;4.752;2023-03-01T10:16:47;102671.56;;;4.12;nan
23321;BME280;33376;51.306;4.752;2023-03-01T10:19:20;102647.94;;;4.23;nan
23321;BME280;33376;51.306;4.752;2023-03-01T10:21:47;102613.81;;;4.20;nan
23321;BME280;33376;51.306;4.752;2023-03-01T10:24:15;102621.69;;;4.32;nan
23321;BME280;33376;51.306;4.752;2023-03-01T10:26:47;102624.34;;;4.30;nan
23321;BME280;33376;51.306;4.752;2023-03-01T10:29:13;102645.31;;;4.47;nan
23321;BME280;33376;51.306;4.752;2023-03-01T10:31:49;102632.19;;;4.41;nan
23321;BME280;33376;51.306;4.752;2023-03-01T10:34:34;102626.91;;;4.48;nan
23321;BME280;33376;51.306;4.752;2023-03-01T10:37:15;102610.31;;;4.49;nan
23321;BME280;33376;51.306;4.752;2023-03-01T10:43:05;102603.28;;;4.42;nan
23321;BME280;33376;51.306;4.752;2023-03-01T10:48:02;102589.25;;;4.57;nan
23321;BME280;33376;51.306;4.752;2023-03-01T10:50:28;102614.63;;;4.58;nan
23321;BME280;33376;51.306;4.752;2023-03-01T10:53:03;102601.53;;;4.63;nan
23321;BME280;33376;51.306;4.752;2023-03-01T10:58:08;102580.41;;;4.82;nan
23321;BME280;33376;51.306;4.752;2023-03-01T11:00:34;102514.78;;;4.70;nan
23321;BME280;33376;51.306;4.752;2023-03-01T11:03:11;102514.78;;;4.73;nan
23321;BME280;33376;51.306;4.752;2023-03-01T11:05:36;102541.84;;;4.92;nan
23321;BME280;33376;51.306;4.752;2023-03-01T11:08:02;102533.09;;;4.94;nan
23321;BME280;33376;51.306;4.752;2023-03-01T11:10:34;102547.97;;;4.94;nan
23321;BME280;33376;51.306;4.752;2023-03-01T11:15:31;102463.84;;;4.98;nan
23321;BME280;33376;51.306;4.752;2023-03-01T11:17:56;102477.78;;;5.09;nan
23321;BME280;33376;51.306;4.752;2023-03-01T11:20:27;102484.78;;;5.13;nan
23321;BME280;33376;51.306;4.752;2023-03-01T11:22:55;102493.47;;;5.24;nan
23321;BME280;33376;51.306;4.752;2023-03-01T11:25:26;102504.97;;;5.10;nan
23321;BME280;33376;51.306;4.752;2023-03-01T11:27:53;102500.50;;;5.22;nan
23321;BME280;33376;51.306;4.752;2023-03-01T11:30:28;102421.78;;;4.98;nan
23321;BME280;33376;51.306;4.752;2023-03-01T11:32:57;102438.22;;;5.27;nan
23321;BME280;33376;51.306;4.752;2023-03-01T11:35:26;102452.25;;;5.28;nan
23321;BME280;33376;51.306;4.752;2023-03-01T11:40:33;102417.09;;;5.36;nan
23321;BME280;33376;51.306;4.752;2023-03-01T11:45:24;102379.38;;;5.40;nan
23321;BME280;33376;51.306;4.752;2023-03-01T11:50:28;102425.81;;;5.44;nan
23321;BME280;33376;51.306;4.752;2023-03-01T11:53:03;102438.13;;;5.44;nan
23321;BME280;33376;51.306;4.752;2023-03-01T11:55:46;102443.38;;;5.42;nan
23321;BME280;33376;51.306;4.752;2023-03-01T12:08:51;102422.19;;;5.57;nan
23321;BME280;33376;51.306;4.752;2023-03-01T12:13:56;102341.28;;;5.80;nan
23321;BME280;33376;51.306;4.752;2023-03-01T12:19:18;102334.22;;;5.85;nan
23321;BME280;33376;51.306;4.752;2023-03-01T12:21:56;102315.78;;;5.88;nan
23321;BME280;33376;51.306;4.752;2023-03-01T12:29:34;102355.25;;;5.88;nan
23321;BME280;33376;51.306;4.752;2023-03-01T12:34:42;102293.94;;;5.77;nan
23321;BME280;33376;51.306;4.752;2023-03-01T12:42:14;102298.91;;;6.03;nan
23321;BME280;33376;51.306;4.752;2023-03-01T12:50:04;102238.59;;;5.85;nan
23321;BME280;33376;51.306;4.752;2023-03-01T12:52:40;102207.53;;;6.10;nan
23321;BME280;33376;51.306;4.752;2023-03-01T12:55:18;102227.72;;;6.11;nan
23321;BME280;33376;51.306;4.752;2023-03-01T12:58:31;102255.94;;;6.01;nan
23321;BME280;33376;51.306;4.752;2023-03-01T13:00:35;102280.50;;;6.00;nan
23321;BME280;33376;51.306;4.752;2023-03-01T13:03:14;102265.44;;;6.13;nan
23321;BME280;33376;51.306;4.752;2023-03-01T13:05:56;102252.44;;;5.99;nan
23321;BME280;33376;51.306;4.752;2023-03-01T13:08:29;102258.38;;;6.15;nan
23321;BME280;33376;51.306;4.752;2023-03-01T13:10:59;102235.41;;;6.24;nan
23321;BME280;33376;51.306;4.752;2023-03-01T13:13:26;102199.41;;;6.25;nan
23321;BME280;33376;51.306;4.752;2023-03-01T13:15:52;102212.75;;;6.11;nan
23321;BME280;33376;51.306;4.752;2023-03-01T13:20:48;102226.28;;;6.48;nan
23321;BME280;33376;51.306;4.752;2023-03-01T13:28:40;102165.94;;;6.31;nan
23321;BME280;33376;51.306;4.752;2023-03-01T13:31:07;102181.50;;;6.45;nan
23321;BME280;33376;51.306;4.752;2023-03-01T13:33:37;102194.75;;;6.40;nan
23321;BME280;33376;51.306;4.752;2023-03-01T13:36:05;102184.81;;;6.59;nan
23321;BME280;33376;51.306;4.752;2023-03-01T13:41:11;102159.50;;;6.49;nan
23321;BME280;33376;51.306;4.752;2023-03-01T13:43:37;102170.94;;;6.46;nan
23321;BME280;33376;51.306;4.752;2023-03-01T13:46:10;102133.22;;;6.46;nan
23321;BME280;33376;51.306;4.752;2023-03-01T13:48:36;102140.97;;;6.53;nan
23321;BME280;33376;51.306;4.752;2023-03-01T13:51:07;102175.25;;;6.52;nan
23321;BME280;33376;51.306;4.752;2023-03-01T13:53:35;102201.72;;;6.46;nan
23321;BME280;33376;51.306;4.752;2023-03-01T13:56:07;102168.34;;;6.43;nan
23321;BME280;33376;51.306;4.752;2023-03-01T13:58:43;102139.47;;;6.39;nan
23321;BME280;33376;51.306;4.752;2023-03-01T14:01:23;102190.31;;;6.44;nan
23321;BME280;33376;51.306;4.752;2023-03-01T14:03:48;102167.84;;;6.75;nan
23321;BME280;33376;51.306;4.752;2023-03-01T14:06:24;102187.03;;;6.80;nan
23321;BME280;33376;51.306;4.752;2023-03-01T14:08:52;102160.16;;;6.61;nan
23321;BME280;33376;51.306;4.752;2023-03-01T14:16:24;102145.44;;;6.48;nan
23321;BME280;33376;51.306;4.752;2023-03-01T14:19:10;102188.22;;;6.65;nan
23321;BME280;33376;51.306;4.752;2023-03-01T14:21:39;102160.41;;;6.48;nan
23321;BME280;33376;51.306;4.752;2023-03-01T14:24:04;102178.78;;;6.52;nan
23321;BME280;33376;51.306;4.752;2023-03-01T14:26:30;102147.03;;;6.58;nan
23321;BME280;33376;51.306;4.752;2023-03-01T14:28:56;102130.22;;;6.64;nan
23321;BME280;33376;51.306;4.752;2023-03-01T14:31:32;102169.75;;;6.65;nan
23321;BME280;33376;51.306;4.752;2023-03-01T14:33:59;102131.25;;;6.57;nan
23321;BME280;33376;51.306;4.752;2023-03-01T14:36:29;102112.84;;;6.55;nan